sensor_id;sensor_type;location;lat;lon;timestamp;P1;durP1;ratioP1;P2;durP2;ratioP2
21624;SDS011;10974;51.034;3.744;2023-11-21T03:42:33;11.07;;;6.30;;
21624;SDS011;10974;51.034;3.744;2023-11-21T03:44:59;10.83;;;6.90;;
21624;SDS011;10974;51.034;3.744;2023-11-21T03:47:26;9.97;;;6.43;;
21624;SDS011;10974;51.034;3.744;2023-11-21T03:49:52;9.30;;;7.00;;
21624;SDS011;10974;51.034;3.744;2023-11-21T03:52:18;11.33;;;6.53;;
21624;SDS011;10974;51.034;3.744;2023-11-21T03:54:44;11.40;;;7.07;;
21624;SDS011;10974;51.034;3.744;2023-11-21T03:57:10;11.40;;;7.67;;
21624;SDS011;10974;51.034;3.744;2023-11-21T03:59:39;8.63;;;6.50;;
21624;SDS011;10974;51.034;3.744;2023-11-21T04:02:06;10.23;;;6.70;;
21624;SDS011;10974;51.034;3.744;2023-11-21T04:04:33;7.37;;;6.20;;
21624;SDS011;10974;51.034;3.744;2023-11-21T04:06:59;7.70;;;5.80;;
21624;SDS011;10974;51.034;3.744;2023-11-21T04:09:25;9.80;;;5.87;;
21624;SDS011;10974;51.034;3.744;2023-11-21T04:11:51;9.50;;;6.70;;
21624;SDS011;10974;51.034;3.744;2023-11-21T04:14:17;7.80;;;6.17;;
21624;SDS011;10974;51.034;3.744;2023-11-21T04:16:43;7.47;;;5.97;;
21624;SDS011;10974;51.034;3.744;2023-11-21T04:19:10;9.33;;;6.40;;
21624;SDS011;10974;51.034;3.744;2023-11-21T04:21:36;9.03;;;5.87;;
21624;SDS011;10974;51.034;3.744;2023-11-21T04:24:03;9.93;;;6.03;;
21624;SDS011;10974;51.034;3.744;2023-11-21T04:26:29;8.00;;;6.37;;
21624;SDS011;10974;51.034;3.744;2023-11-21T04:28:55;8.50;;;6.17;;
21624;SDS011;10974;51.034;3.744;2023-11-21T04:31:21;10.93;;;6.60;;
21624;SDS011;10974;51.034;3.744;2023-11-21T04:33:47;8.17;;;5.80;;
21624;SDS011;10974;51.034;3.744;2023-11-21T04:36:13;9.07;;;6.20;;
21624;SDS011;10974;51.034;3.744;2023-11-21T04:38:39;8.83;;;6.47;;
21624;SDS011;10974;51.034;3.744;2023-11-21T04:41:06;8.80;;;7.03;;
21624;SDS011;10974;51.034;3.744;2023-11-21T04:43:32;9.43;;;6.23;;
21624;SDS011;10974;51.034;3.744;2023-11-21T04:45:58;9.70;;;6.57;;
21624;SDS011;10974;51.034;3.744;2023-11-21T04:48:24;8.50;;;6.80;;
21624;SDS011;10974;51.034;3.744;2023-11-21T04:50:50;10.73;;;7.13;;
21624;SDS011;10974;51.034;3.744;2023-11-21T04:53:17;8.97;;;5.70;;
21624;SDS011;10974;51.034;3.744;2023-11-21T04:55:43;10.47;;;6.97;;
21624;SDS011;10974;51.034;3.744;2023-11-21T04:58:09;11.87;;;7.10;;
21624;SDS011;10974;51.034;3.744;2023-11-21T05:00:36;7.97;;;6.43;;
21624;SDS011;10974;51.034;3.744;2023-11-21T05:03:02;10.23;;;7.00;;
21624;SDS011;10974;51.034;3.744;2023-11-21T05:05:29;9.57;;;7.53;;
21624;SDS011;10974;51.034;3.744;2023-11-21T05:07:55;8.50;;;6.47;;
21624;SDS011;10974;51.034;3.744;2023-11-21T05:10:21;15.50;;;6.80;;
21624;SDS011;10974;51.034;3.744;2023-11-21T05:12:48;9.47;;;7.00;;
21624;SDS011;10974;51.034;3.744;2023-11-21T05:15:15;8.53;;;6.87;;
21624;SDS011;10974;51.034;3.744;2023-11-21T05:17:42;8.93;;;6.73;;
21624;SDS011;10974;51.034;3.744;2023-11-21T05:20:12;11.00;;;7.30;;
21624;SDS011;10974;51.034;3.744;2023-11-21T05:22:39;10.47;;;7.03;;
21624;SDS011;10974;51.034;3.744;2023-11-21T05:25:05;8.33;;;6.57;;
21624;SDS011;10974;51.034;3.744;2023-11-21T05:27:36;9.97;;;6.60;;
21624;SDS011;10974;51.034;3.744;2023-11-21T05:30:02;10.70;;;7.20;;
21624;SDS011;10974;51.034;3.744;2023-11-21T05:32:34;12.37;;;6.93;;
21624;SDS011;10974;51.034;3.744;2023-11-21T05:35:00;13.53;;;7.53;;
21624;SDS011;10974;51.034;3.744;2023-11-21T05:37:26;7.73;;;5.80;;
21624;SDS011;10974;51.034;3.744;2023-11-21T05:39:53;8.27;;;7.23;;
21624;SDS011;10974;51.034;3.744;2023-11-21T05:42:21;8.40;;;6.67;;
21624;SDS011;10974;51.034;3.744;2023-11-21T05:44:48;10.10;;;7.60;;
21624;SDS011;10974;51.034;3.744;2023-11-21T05:47:14;19.83;;;7.20;;
21624;SDS011;10974;51.034;3.744;2023-11-21T05:49:40;11.00;;;7.77;;
21624;SDS011;10974;51.034;3.744;2023-11-21T05:52:07;11.30;;;7.70;;
21624;SDS011;10974;51.034;3.744;2023-11-21T05:54:33;10.17;;;7.50;;
21624;SDS011;10974;51.034;3.744;2023-11-21T05:57:00;10.53;;;7.80;;
21624;SDS011;10974;51.034;3.744;2023-11-21T05:59:26;10.90;;;8.60;;
21624;SDS011;10974;51.034;3.744;2023-11-21T06:01:52;9.17;;;7.70;;
21624;SDS011;10974;51.034;3.744;2023-11-21T06:04:18;15.50;;;8.70;;
21624;SDS011;10974;51.034;3.744;2023-11-21T06:06:50;12.90;;;7.83;;
21624;SDS011;10974;51.034;3.744;2023-11-21T06:09:17;14.40;;;8.57;;
21624;SDS011;10974;51.034;3.744;2023-11-21T06:11:43;10.80;;;8.10;;
21624;SDS011;10974;51.034;3.744;2023-11-21T06:14:09;12.10;;;9.00;;
21624;SDS011;10974;51.034;3.744;2023-11-21T06:16:36;12.30;;;8.50;;
21624;SDS011;10974;51.034;3.744;2023-11-21T06:19:02;12.87;;;7.97;;
21624;SDS011;10974;51.034;3.744;2023-11-21T06:21:28;11.20;;;8.50;;
21624;SDS011;10974;51.034;3.744;2023-11-21T06:23:54;10.13;;;7.83;;
21624;SDS011;10974;51.034;3.744;2023-11-21T06:26:22;11.67;;;8.97;;
21624;SDS011;10974;51.034;3.744;2023-11-21T06:28:49;10.93;;;8.03;;
21624;SDS011;10974;51.034;3.744;2023-11-21T06:31:16;13.00;;;8.90;;
21624;SDS011;10974;51.034;3.744;2023-11-21T06:33:42;10.33;;;6.90;;
21624;SDS011;10974;51.034;3.744;2023-11-21T06:36:09;11.70;;;8.50;;
21624;SDS011;10974;51.034;3.744;2023-11-21T06:38:36;15.80;;;8.23;;
21624;SDS011;10974;51.034;3.744;2023-11-21T06:41:02;12.63;;;8.20;;
21624;SDS011;10974;51.034;3.744;2023-11-21T06:43:29;10.83;;;7.60;;
21624;SDS011;10974;51.034;3.744;2023-11-21T06:45:58;11.60;;;8.47;;
21624;SDS011;10974;51.034;3.744;2023-11-21T06:48:24;10.73;;;7.77;;
21624;SDS011;10974;51.034;3.744;2023-11-21T06:50:50;13.77;;;7.70;;
21624;SDS011;10974;51.034;3.744;2023-11-21T06:53:17;12.20;;;7.23;;
21624;SDS011;10974;51.034;3.744;2023-11-21T06:55:43;10.23;;;7.67;;
21624;SDS011;10974;51.034;3.744;2023-11-21T06:58:09;11.40;;;7.37;;
21624;SDS011;10974;51.034;3.744;2023-11-21T07:00:35;13.27;;;8.43;;
21624;SDS011;10974;51.034;3.744;2023-11-21T07:03:01;9.23;;;6.70;;
21624;SDS011;10974;51.034;3.744;2023-11-21T07:05:27;9.63;;;7.00;;
21624;SDS011;10974;51.034;3.744;2023-11-21T07:07:54;11.67;;;7.10;;
21624;SDS011;10974;51.034;3.744;2023-11-21T07:10:20;11.33;;;7.90;;
21624;SDS011;10974;51.034;3.744;2023-11-21T07:12:47;12.13;;;8.27;;
21624;SDS011;10974;51.034;3.744;2023-11-21T07:15:13;10.80;;;7.37;;
21624;SDS011;10974;51.034;3.744;2023-11-21T07:17:39;15.10;;;9.53;;
21624;SDS011;10974;51.034;3.744;2023-11-21T07:20:06;13.13;;;9.10;;
21624;SDS011;10974;51.034;3.744;2023-11-21T07:22:33;18.30;;;10.83;;
21624;SDS011;10974;51.034;3.744;2023-11-21T07:24:59;14.10;;;9.03;;
21624;SDS011;10974;51.034;3.744;2023-11-21T07:27:25;12.83;;;8.50;;
21624;SDS011;10974;51.034;3.744;2023-11-21T07:29:51;12.40;;;8.60;;
21624;SDS011;10974;51.034;3.744;2023-11-21T07:32:17;11.77;;;8.00;;
21624;SDS011;10974;51.034;3.744;2023-11-21T07:34:43;13.80;;;8.13;;
21624;SDS011;10974;51.034;3.744;2023-11-21T07:37:10;12.87;;;8.13;;
21624;SDS011;10974;51.034;3.744;2023-11-21T07:39:36;14.87;;;8.80;;
21624;SDS011;10974;51.034;3.744;2023-11-21T07:42:02;15.53;;;8.20;;
21624;SDS011;10974;51.034;3.744;2023-11-21T07:44:29;14.00;;;7.97;;
21624;SDS011;10974;51.034;3.744;2023-11-21T07:46:55;12.40;;;8.00;;
21624;SDS011;10974;51.034;3.744;2023-11-21T07:49:23;12.40;;;7.80;;
21624;SDS011;10974;51.034;3.744;2023-11-21T07:51:49;13.43;;;7.77;;
21624;SDS011;10974;51.034;3.744;2023-11-21T07:54:15;18.97;;;7.43;;
21624;SDS011;10974;51.034;3.744;2023-11-21T07:56:41;11.57;;;7.63;;
21624;SDS011;10974;51.034;3.744;2023-11-21T07:59:07;11.47;;;7.37;;
21624;SDS011;10974;51.034;3.744;2023-11-21T08:01:33;11.10;;;7.03;;
21624;SDS011;10974;51.034;3.744;2023-11-21T08:04:00;10.27;;;7.07;;
21624;SDS011;10974;51.034;3.744;2023-11-21T08:06:32;9.90;;;7.10;;
21624;SDS011;10974;51.034;3.744;2023-11-21T08:08:58;8.30;;;6.20;;
21624;SDS011;10974;51.034;3.744;2023-11-21T08:11:24;9.83;;;6.20;;
21624;SDS011;10974;51.034;3.744;2023-11-21T08:13:54;9.53;;;6.50;;
21624;SDS011;10974;51.034;3.744;2023-11-21T08:16:20;6.03;;;5.30;;
21624;SDS011;10974;51.034;3.744;2023-11-21T08:18:46;8.07;;;5.70;;
21624;SDS011;10974;51.034;3.744;2023-11-21T08:21:12;7.77;;;6.37;;
21624;SDS011;10974;51.034;3.744;2023-11-21T08:23:38;7.80;;;5.17;;
21624;SDS011;10974;51.034;3.744;2023-11-21T08:26:06;10.60;;;5.83;;
21624;SDS011;10974;51.034;3.744;2023-11-21T08:28:32;6.47;;;5.43;;
21624;SDS011;10974;51.034;3.744;2023-11-21T08:30:58;9.53;;;5.13;;
21624;SDS011;10974;51.034;3.744;2023-11-21T08:33:24;6.10;;;5.03;;
21624;SDS011;10974;51.034;3.744;2023-11-21T08:35:50;6.90;;;5.93;;
21624;SDS011;10974;51.034;3.744;2023-11-21T08:38:16;7.00;;;5.50;;
21624;SDS011;10974;51.034;3.744;2023-11-21T08:40:42;8.10;;;6.87;;
21624;SDS011;10974;51.034;3.744;2023-11-21T08:43:09;9.43;;;7.50;;
21624;SDS011;10974;51.034;3.744;2023-11-21T08:45:37;10.60;;;7.40;;
21624;SDS011;10974;51.034;3.744;2023-11-21T08:48:04;6.70;;;5.63;;
21624;SDS011;10974;51.034;3.744;2023-11-21T08:50:30;7.07;;;5.43;;
21624;SDS011;10974;51.034;3.744;2023-11-21T08:52:56;6.97;;;4.57;;
21624;SDS011;10974;51.034;3.744;2023-11-21T08:55:22;4.90;;;4.17;;
21624;SDS011;10974;51.034;3.744;2023-11-21T08:57:48;6.20;;;4.67;;
21624;SDS011;10974;51.034;3.744;2023-11-21T09:00:14;5.00;;;4.33;;
21624;SDS011;10974;51.034;3.744;2023-11-21T09:02:42;4.93;;;4.43;;
21624;SDS011;10974;51.034;3.744;2023-11-21T09:05:08;7.17;;;5.03;;
21624;SDS011;10974;51.034;3.744;2023-11-21T09:07:35;6.97;;;5.37;;
21624;SDS011;10974;51.034;3.744;2023-11-21T09:10:01;7.93;;;5.70;;
21624;SDS011;10974;51.034;3.744;2023-11-21T09:12:28;6.40;;;5.80;;
21624;SDS011;10974;51.034;3.744;2023-11-21T09:14:54;6.87;;;5.60;;
21624;SDS011;10974;51.034;3.744;2023-11-21T09:17:20;7.83;;;5.63;;
21624;SDS011;10974;51.034;3.744;2023-11-21T09:19:46;9.50;;;6.67;;
21624;SDS011;10974;51.034;3.744;2023-11-21T09:22:16;8.23;;;5.83;;
21624;SDS011;10974;51.034;3.744;2023-11-21T09:24:42;9.77;;;6.33;;
21624;SDS011;10974;51.034;3.744;2023-11-21T09:27:08;7.20;;;5.40;;
21624;SDS011;10974;51.034;3.744;2023-11-21T09:29:35;5.30;;;4.57;;
21624;SDS011;10974;51.034;3.744;2023-11-21T09:32:03;6.20;;;4.90;;
21624;SDS011;10974;51.034;3.744;2023-11-21T09:34:31;5.87;;;4.30;;
21624;SDS011;10974;51.034;3.744;2023-11-21T09:36:57;5.33;;;3.70;;
21624;SDS011;10974;51.034;3.744;2023-11-21T09:39:24;5.40;;;3.67;;
21624;SDS011;10974;51.034;3.744;2023-11-21T09:41:50;4.67;;;3.00;;
21624;SDS011;10974;51.034;3.744;2023-11-21T09:44:22;5.13;;;3.57;;
21624;SDS011;10974;51.034;3.744;2023-11-21T09:46:51;3.83;;;3.10;;
21624;SDS011;10974;51.034;3.744;2023-11-21T09:49:21;6.47;;;3.50;;
21624;SDS011;10974;51.034;3.744;2023-11-21T09:51:53;5.10;;;2.70;;
21624;SDS011;10974;51.034;3.744;2023-11-21T09:54:22;3.83;;;2.37;;
21624;SDS011;10974;51.034;3.744;2023-11-21T09:56:48;4.87;;;2.70;;
21624;SDS011;10974;51.034;3.744;2023-11-21T09:59:15;4.00;;;2.73;;
21624;SDS011;10974;51.034;3.744;2023-11-21T10:01:42;3.77;;;2.83;;
21624;SDS011;10974;51.034;3.744;2023-11-21T10:04:11;5.20;;;3.20;;
21624;SDS011;10974;51.034;3.744;2023-11-21T10:06:40;4.10;;;2.70;;
21624;SDS011;10974;51.034;3.744;2023-11-21T10:09:09;3.50;;;2.40;;
21624;SDS011;10974;51.034;3.744;2023-11-21T10:11:36;5.17;;;3.33;;
21624;SDS011;10974;51.034;3.744;2023-11-21T10:14:03;8.90;;;3.53;;
21624;SDS011;10974;51.034;3.744;2023-11-21T10:16:30;4.77;;;2.83;;
21624;SDS011;10974;51.034;3.744;2023-11-21T10:18:57;7.97;;;3.70;;
21624;SDS011;10974;51.034;3.744;2023-11-21T10:21:24;8.77;;;3.37;;
21624;SDS011;10974;51.034;3.744;2023-11-21T10:23:51;4.13;;;2.93;;
21624;SDS011;10974;51.034;3.744;2023-11-21T10:26:18;3.53;;;2.37;;
21624;SDS011;10974;51.034;3.744;2023-11-21T10:28:55;3.10;;;2.40;;
21624;SDS011;10974;51.034;3.744;2023-11-21T10:31:22;7.07;;;2.63;;
21624;SDS011;10974;51.034;3.744;2023-11-21T10:33:49;5.83;;;3.40;;
21624;SDS011;10974;51.034;3.744;2023-11-21T10:36:26;6.40;;;3.30;;
21624;SDS011;10974;51.034;3.744;2023-11-21T10:38:53;3.77;;;2.70;;
21624;SDS011;10974;51.034;3.744;2023-11-21T10:41:20;10.47;;;3.60;;
21624;SDS011;10974;51.034;3.744;2023-11-21T10:43:46;6.00;;;3.20;;
21624;SDS011;10974;51.034;3.744;2023-11-21T10:46:13;7.07;;;3.43;;
21624;SDS011;10974;51.034;3.744;2023-11-21T10:48:43;5.83;;;2.93;;
21624;SDS011;10974;51.034;3.744;2023-11-21T10:51:09;3.13;;;2.57;;
21624;SDS011;10974;51.034;3.744;2023-11-21T10:53:42;6.40;;;3.33;;
21624;SDS011;10974;51.034;3.744;2023-11-21T10:56:08;4.20;;;2.73;;
21624;SDS011;10974;51.034;3.744;2023-11-21T10:58:42;4.50;;;3.03;;
21624;SDS011;10974;51.034;3.744;2023-11-21T11:01:08;5.03;;;2.97;;
21624;SDS011;10974;51.034;3.744;2023-11-21T11:03:39;4.00;;;3.00;;
21624;SDS011;10974;51.034;3.744;2023-11-21T11:06:05;5.27;;;2.40;;
21624;SDS011;10974;51.034;3.744;2023-11-21T11:08:37;3.23;;;2.07;;
21624;SDS011;10974;51.034;3.744;2023-11-21T11:11:04;3.20;;;2.10;;
21624;SDS011;10974;51.034;3.744;2023-11-21T11:13:31;5.93;;;2.30;;
21624;SDS011;10974;51.034;3.744;2023-11-21T11:15:58;4.53;;;2.40;;
21624;SDS011;10974;51.034;3.744;2023-11-21T11:18:25;3.57;;;2.77;;
21624;SDS011;10974;51.034;3.744;2023-11-21T11:20:51;6.53;;;3.30;;
21624;SDS011;10974;51.034;3.744;2023-11-21T11:26:08;7.00;;;3.20;;
21624;SDS011;10974;51.034;3.744;2023-11-21T11:34:32;4.27;;;3.00;;
21624;SDS011;10974;51.034;3.744;2023-11-21T11:37:02;5.93;;;3.23;;
21624;SDS011;10974;51.034;3.744;2023-11-21T11:41:58;5.40;;;2.53;;
21624;SDS011;10974;51.034;3.744;2023-11-21T11:47:14;5.83;;;2.47;;
21624;SDS011;10974;51.034;3.744;2023-11-21T11:52:32;6.77;;;2.40;;
21624;SDS011;10974;51.034;3.744;2023-11-21T11:54:59;6.27;;;2.50;;
21624;SDS011;10974;51.034;3.744;2023-11-21T11:57:25;9.00;;;2.07;;
21624;SDS011;10974;51.034;3.744;2023-11-21T12:00:07;5.30;;;2.03;;
21624;SDS011;10974;51.034;3.744;2023-11-21T12:02:37;7.20;;;2.43;;
21624;SDS011;10974;51.034;3.744;2023-11-21T12:05:10;7.87;;;2.43;;
21624;SDS011;10974;51.034;3.744;2023-11-21T12:07:44;6.33;;;2.90;;
21624;SDS011;10974;51.034;3.744;2023-11-21T12:10:12;8.20;;;3.20;;
21624;SDS011;10974;51.034;3.744;2023-11-21T12:12:43;5.97;;;2.47;;
21624;SDS011;10974;51.034;3.744;2023-11-21T12:15:10;3.33;;;1.97;;
21624;SDS011;10974;51.034;3.744;2023-11-21T12:17:37;5.80;;;2.00;;
21624;SDS011;10974;51.034;3.744;2023-11-21T12:20:04;4.80;;;2.13;;
21624;SDS011;10974;51.034;3.744;2023-11-21T12:22:31;4.90;;;2.17;;
21624;SDS011;10974;51.034;3.744;2023-11-21T12:24:57;3.80;;;2.17;;
21624;SDS011;10974;51.034;3.744;2023-11-21T12:27:23;4.70;;;1.87;;
21624;SDS011;10974;51.034;3.744;2023-11-21T12:29:49;4.57;;;1.90;;
21624;SDS011;10974;51.034;3.744;2023-11-21T12:32:15;3.77;;;1.90;;
21624;SDS011;10974;51.034;3.744;2023-11-21T12:34:43;2.90;;;1.43;;
21624;SDS011;10974;51.034;3.744;2023-11-21T12:37:09;6.60;;;2.30;;
21624;SDS011;10974;51.034;3.744;2023-11-21T12:39:35;4.67;;;2.07;;
21624;SDS011;10974;51.034;3.744;2023-11-21T12:42:01;3.10;;;2.10;;
21624;SDS011;10974;51.034;3.744;2023-11-21T12:44:27;3.07;;;1.77;;
21624;SDS011;10974;51.034;3.744;2023-11-21T12:46:54;3.63;;;1.80;;
21624;SDS011;10974;51.034;3.744;2023-11-21T12:49:20;5.00;;;1.90;;
21624;SDS011;10974;51.034;3.744;2023-11-21T12:51:47;3.13;;;1.90;;
21624;SDS011;10974;51.034;3.744;2023-11-21T12:54:13;2.57;;;1.80;;
21624;SDS011;10974;51.034;3.744;2023-11-21T12:56:40;3.20;;;2.17;;
21624;SDS011;10974;51.034;3.744;2023-11-21T12:59:06;4.50;;;2.20;;
21624;SDS011;10974;51.034;3.744;2023-11-21T13:01:36;4.10;;;2.03;;
21624;SDS011;10974;51.034;3.744;2023-11-21T13:04:04;3.53;;;1.80;;
21624;SDS011;10974;51.034;3.744;2023-11-21T13:06:36;2.60;;;2.17;;
21624;SDS011;10974;51.034;3.744;2023-11-21T13:09:06;4.53;;;2.37;;
21624;SDS011;10974;51.034;3.744;2023-11-21T13:11:35;2.63;;;1.83;;
21624;SDS011;10974;51.034;3.744;2023-11-21T13:14:02;4.60;;;2.33;;
21624;SDS011;10974;51.034;3.744;2023-11-21T13:16:28;3.40;;;2.23;;
21624;SDS011;10974;51.034;3.744;2023-11-21T13:18:56;3.70;;;2.13;;
21624;SDS011;10974;51.034;3.744;2023-11-21T13:21:23;9.30;;;2.50;;
21624;SDS011;10974;51.034;3.744;2023-11-21T13:23:49;4.30;;;2.87;;
21624;SDS011;10974;51.034;3.744;2023-11-21T13:26:18;2.77;;;2.33;;
21624;SDS011;10974;51.034;3.744;2023-11-21T13:28:45;2.73;;;2.47;;
21624;SDS011;10974;51.034;3.744;2023-11-21T13:31:12;3.03;;;2.60;;
21624;SDS011;10974;51.034;3.744;2023-11-21T13:34:07;3.83;;;2.87;;
21624;SDS011;10974;51.034;3.744;2023-11-21T13:36:33;3.17;;;2.87;;
21624;SDS011;10974;51.034;3.744;2023-11-21T13:39:00;3.30;;;2.80;;
21624;SDS011;10974;51.034;3.744;2023-11-21T13:41:36;4.07;;;2.87;;
21624;SDS011;10974;51.034;3.744;2023-11-21T13:44:03;4.30;;;2.90;;
21624;SDS011;10974;51.034;3.744;2023-11-21T13:46:51;4.83;;;2.43;;
21624;SDS011;10974;51.034;3.744;2023-11-21T13:49:17;3.37;;;2.67;;
21624;SDS011;10974;51.034;3.744;2023-11-21T13:51:46;2.60;;;2.40;;
21624;SDS011;10974;51.034;3.744;2023-11-21T13:54:17;3.10;;;2.70;;
21624;SDS011;10974;51.034;3.744;2023-11-21T13:56:45;3.70;;;2.67;;
21624;SDS011;10974;51.034;3.744;2023-11-21T13:59:12;3.63;;;2.70;;
21624;SDS011;10974;51.034;3.744;2023-11-21T14:01:53;3.70;;;2.70;;
21624;SDS011;10974;51.034;3.744;2023-11-21T14:04:24;3.07;;;2.67;;
21624;SDS011;10974;51.034;3.744;2023-11-21T14:07:00;2.70;;;2.23;;
21624;SDS011;10974;51.034;3.744;2023-11-21T14:09:39;3.37;;;3.00;;
21624;SDS011;10974;51.034;3.744;2023-11-21T14:12:08;3.30;;;2.23;;
21624;SDS011;10974;51.034;3.744;2023-11-21T14:14:37;2.63;;;2.00;;
21624;SDS011;10974;51.034;3.744;2023-11-21T14:17:04;2.30;;;2.20;;
21624;SDS011;10974;51.034;3.744;2023-11-21T14:19:32;2.57;;;2.37;;
21624;SDS011;10974;51.034;3.744;2023-11-21T14:21:59;2.97;;;2.77;;
21624;SDS011;10974;51.034;3.744;2023-11-21T14:24:26;3.60;;;2.83;;
21624;SDS011;10974;51.034;3.744;2023-11-21T14:26:52;2.70;;;2.50;;
21624;SDS011;10974;51.034;3.744;2023-11-21T14:29:18;3.73;;;3.33;;
21624;SDS011;10974;51.034;3.744;2023-11-21T14:31:45;3.30;;;3.00;;
21624;SDS011;10974;51.034;3.744;2023-11-21T14:34:11;3.80;;;2.77;;
21624;SDS011;10974;51.034;3.744;2023-11-21T14:36:39;4.43;;;2.60;;
21624;SDS011;10974;51.034;3.744;2023-11-21T14:39:05;3.17;;;2.87;;
21624;SDS011;10974;51.034;3.744;2023-11-21T14:41:34;2.60;;;2.40;;
21624;SDS011;10974;51.034;3.744;2023-11-21T14:44:02;3.07;;;2.77;;
21624;SDS011;10974;51.034;3.744;2023-11-21T14:46:29;3.50;;;2.20;;
21624;SDS011;10974;51.034;3.744;2023-11-21T14:48:55;2.67;;;2.30;;
21624;SDS011;10974;51.034;3.744;2023-11-21T14:51:26;2.60;;;2.40;;
21624;SDS011;10974;51.034;3.744;2023-11-21T14:54:18;2.40;;;2.20;;
21624;SDS011;10974;51.034;3.744;2023-11-21T14:56:56;3.30;;;2.70;;
21624;SDS011;10974;51.034;3.744;2023-11-21T14:59:22;2.27;;;2.17;;
21624;SDS011;10974;51.034;3.744;2023-11-21T15:01:48;2.90;;;2.70;;
21624;SDS011;10974;51.034;3.744;2023-11-21T15:04:20;2.93;;;2.60;;
21624;SDS011;10974;51.034;3.744;2023-11-21T15:07:01;3.03;;;2.73;;
21624;SDS011;10974;51.034;3.744;2023-11-21T15:09:28;3.83;;;2.90;;
21624;SDS011;10974;51.034;3.744;2023-11-21T15:11:57;3.73;;;3.20;;
21624;SDS011;10974;51.034;3.744;2023-11-21T15:14:29;3.27;;;3.00;;
21624;SDS011;10974;51.034;3.744;2023-11-21T15:16:59;3.97;;;3.57;;
21624;SDS011;10974;51.034;3.744;2023-11-21T15:19:26;3.90;;;3.50;;
21624;SDS011;10974;51.034;3.744;2023-11-21T15:21:53;4.20;;;3.90;;
21624;SDS011;10974;51.034;3.744;2023-11-21T15:24:19;3.63;;;3.33;;
21624;SDS011;10974;51.034;3.744;2023-11-21T15:26:45;4.40;;;3.83;;
21624;SDS011;10974;51.034;3.744;2023-11-21T15:29:11;4.17;;;3.77;;
21624;SDS011;10974;51.034;3.744;2023-11-21T15:31:38;4.40;;;4.00;;
21624;SDS011;10974;51.034;3.744;2023-11-21T15:34:09;3.87;;;3.50;;
21624;SDS011;10974;51.034;3.744;2023-11-21T15:36:35;4.10;;;3.70;;
21624;SDS011;10974;51.034;3.744;2023-11-21T15:39:02;4.40;;;4.00;;
21624;SDS011;10974;51.034;3.744;2023-11-21T15:41:28;5.23;;;4.77;;
21624;SDS011;10974;51.034;3.744;2023-11-21T15:43:54;4.30;;;3.90;;
21624;SDS011;10974;51.034;3.744;2023-11-21T15:46:20;4.70;;;4.30;;
21624;SDS011;10974;51.034;3.744;2023-11-21T15:48:46;4.67;;;4.27;;
21624;SDS011;10974;51.034;3.744;2023-11-21T15:51:19;3.73;;;3.40;;
21624;SDS011;10974;51.034;3.744;2023-11-21T15:53:45;4.17;;;3.80;;
21624;SDS011;10974;51.034;3.744;2023-11-21T15:56:11;4.20;;;3.80;;
21624;SDS011;10974;51.034;3.744;2023-11-21T15:58:40;5.20;;;4.47;;
21624;SDS011;10974;51.034;3.744;2023-11-21T16:01:11;5.23;;;4.10;;
21624;SDS011;10974;51.034;3.744;2023-11-21T16:03:38;4.63;;;4.23;;
21624;SDS011;10974;51.034;3.744;2023-11-21T16:06:05;4.40;;;4.00;;
21624;SDS011;10974;51.034;3.744;2023-11-21T16:08:35;4.77;;;4.30;;
21624;SDS011;10974;51.034;3.744;2023-11-21T16:11:01;5.33;;;4.20;;
21624;SDS011;10974;51.034;3.744;2023-11-21T16:13:29;7.00;;;4.90;;
21624;SDS011;10974;51.034;3.744;2023-11-21T16:15:55;4.80;;;4.40;;
21624;SDS011;10974;51.034;3.744;2023-11-21T16:18:21;5.90;;;3.90;;
21624;SDS011;10974;51.034;3.744;2023-11-21T16:20:48;6.60;;;4.07;;
21624;SDS011;10974;51.034;3.744;2023-11-21T16:23:15;4.87;;;4.37;;
21624;SDS011;10974;51.034;3.744;2023-11-21T16:25:41;4.13;;;3.80;;
21624;SDS011;10974;51.034;3.744;2023-11-21T16:28:08;4.53;;;4.13;;
21624;SDS011;10974;51.034;3.744;2023-11-21T16:30:34;5.27;;;4.77;;
21624;SDS011;10974;51.034;3.744;2023-11-21T16:33:03;4.77;;;4.00;;
21624;SDS011;10974;51.034;3.744;2023-11-21T16:35:29;4.50;;;4.07;;
21624;SDS011;10974;51.034;3.744;2023-11-21T16:37:56;5.30;;;4.27;;
21624;SDS011;10974;51.034;3.744;2023-11-21T16:40:22;4.60;;;4.13;;
21624;SDS011;10974;51.034;3.744;2023-11-21T16:42:48;5.70;;;5.20;;
21624;SDS011;10974;51.034;3.744;2023-11-21T16:45:14;6.73;;;5.93;;
21624;SDS011;10974;51.034;3.744;2023-11-21T16:47:44;5.77;;;5.10;;
21624;SDS011;10974;51.034;3.744;2023-11-21T16:50:10;5.63;;;4.47;;
21624;SDS011;10974;51.034;3.744;2023-11-21T16:52:36;5.13;;;4.33;;
21624;SDS011;10974;51.034;3.744;2023-11-21T16:55:03;7.63;;;4.70;;
21624;SDS011;10974;51.034;3.744;2023-11-21T16:57:29;6.00;;;4.70;;
21624;SDS011;10974;51.034;3.744;2023-11-21T16:59:55;6.80;;;5.50;;
21624;SDS011;10974;51.034;3.744;2023-11-21T17:02:21;6.93;;;5.30;;
21624;SDS011;10974;51.034;3.744;2023-11-21T17:04:47;6.07;;;5.20;;
21624;SDS011;10974;51.034;3.744;2023-11-21T17:07:15;7.10;;;5.37;;
21624;SDS011;10974;51.034;3.744;2023-11-21T17:09:41;5.60;;;4.40;;
21624;SDS011;10974;51.034;3.744;2023-11-21T17:12:07;5.33;;;4.33;;
21624;SDS011;10974;51.034;3.744;2023-11-21T17:14:33;5.13;;;4.30;;
21624;SDS011;10974;51.034;3.744;2023-11-21T17:16:59;3.83;;;3.27;;
21624;SDS011;10974;51.034;3.744;2023-11-21T17:19:26;5.37;;;4.50;;
21624;SDS011;10974;51.034;3.744;2023-11-21T17:21:57;3.97;;;3.57;;
21624;SDS011;10974;51.034;3.744;2023-11-21T17:24:23;5.20;;;3.90;;
21624;SDS011;10974;51.034;3.744;2023-11-21T17:26:49;4.27;;;3.50;;
21624;SDS011;10974;51.034;3.744;2023-11-21T17:29:15;4.63;;;3.47;;
21624;SDS011;10974;51.034;3.744;2023-11-21T17:31:43;5.40;;;4.07;;
21624;SDS011;10974;51.034;3.744;2023-11-21T17:34:09;4.43;;;3.90;;
21624;SDS011;10974;51.034;3.744;2023-11-21T17:36:36;4.70;;;4.10;;
21624;SDS011;10974;51.034;3.744;2023-11-21T17:39:03;5.43;;;4.17;;
21624;SDS011;10974;51.034;3.744;2023-11-21T17:41:34;4.60;;;4.00;;
21624;SDS011;10974;51.034;3.744;2023-11-21T17:44:00;4.43;;;3.50;;
21624;SDS011;10974;51.034;3.744;2023-11-21T17:46:28;4.60;;;4.20;;
21624;SDS011;10974;51.034;3.744;2023-11-21T17:48:55;4.33;;;3.93;;
21624;SDS011;10974;51.034;3.744;2023-11-21T17:51:21;5.10;;;4.37;;
21624;SDS011;10974;51.034;3.744;2023-11-21T17:53:47;4.80;;;4.27;;
21624;SDS011;10974;51.034;3.744;2023-11-21T17:56:17;6.03;;;4.77;;
21624;SDS011;10974;51.034;3.744;2023-11-21T17:58:44;6.20;;;4.60;;
21624;SDS011;10974;51.034;3.744;2023-11-21T18:01:10;4.67;;;4.10;;
21624;SDS011;10974;51.034;3.744;2023-11-21T18:03:37;7.30;;;4.50;;
21624;SDS011;10974;51.034;3.744;2023-11-21T18:06:04;5.00;;;4.27;;
21624;SDS011;10974;51.034;3.744;2023-11-21T18:08:30;5.80;;;5.10;;
21624;SDS011;10974;51.034;3.744;2023-11-21T18:10:56;5.60;;;5.10;;
21624;SDS011;10974;51.034;3.744;2023-11-21T18:13:24;7.20;;;5.83;;
21624;SDS011;10974;51.034;3.744;2023-11-21T18:15:50;5.83;;;4.90;;
21624;SDS011;10974;51.034;3.744;2023-11-21T18:18:16;5.23;;;4.70;;
21624;SDS011;10974;51.034;3.744;2023-11-21T18:20:42;5.83;;;4.00;;
21624;SDS011;10974;51.034;3.744;2023-11-21T18:23:10;4.80;;;4.00;;
21624;SDS011;10974;51.034;3.744;2023-11-21T18:25:36;4.70;;;3.73;;
21624;SDS011;10974;51.034;3.744;2023-11-21T18:28:04;4.43;;;4.03;;
21624;SDS011;10974;51.034;3.744;2023-11-21T18:30:30;5.80;;;5.07;;
21624;SDS011;10974;51.034;3.744;2023-11-21T18:32:56;5.13;;;3.90;;
21624;SDS011;10974;51.034;3.744;2023-11-21T18:35:22;4.77;;;4.27;;
21624;SDS011;10974;51.034;3.744;2023-11-21T18:37:49;4.17;;;3.77;;
21624;SDS011;10974;51.034;3.744;2023-11-21T18:40:15;5.30;;;4.77;;
21624;SDS011;10974;51.034;3.744;2023-11-21T18:42:42;5.87;;;4.30;;
21624;SDS011;10974;51.034;3.744;2023-11-21T18:45:11;6.13;;;4.53;;